Time;durP1;ratioP1;P1;durP2;ratioP2;P2;SDS_P1;SDS_P2;PMS_P1;PMS_P2;Temp;Humidity;BMP_temperature;BMP_pressure;BME280_temperature;BME280_humidity;BME280_pressure;Samples;Min_cycle;Max_cycle;Signal;HPM_P1;HPM_P2
2020/12/16 00:01:52;;;;;;;10.05;6.70;;;22.70;50.80;;;;;;5009779;28;45439;-49
2020/12/16 00:04:21;;;;;;;9.10;6.13;;;22.70;50.80;;;;;;5009234;28;47008;-49
2020/12/16 00:06:47;;;;;;;8.85;6.13;;;22.70;50.80;;;;;;5025891;28;45319;-49
2020/12/16 00:09:13;;;;;;;9.88;6.82;;;22.70;50.80;;;;;;5012531;28;45352;-50
2020/12/16 00:11:38;;;;;;;10.57;6.63;;;22.70;50.80;;;;;;5013234;28;45526;-49
2020/12/16 00:14:04;;;;;;;9.40;6.72;;;22.70;50.80;;;;;;5012572;28;46130;-49
2020/12/16 00:16:32;;;;;;;8.68;6.35;;;22.60;50.80;;;;;;5012543;28;45328;-49
2020/12/16 00:18:57;;;;;;;9.45;6.93;;;22.70;50.80;;;;;;5029073;28;45319;-50
2020/12/16 00:21:23;;;;;;;9.23;6.25;;;22.70;50.80;;;;;;5013030;28;45490;-52
2020/12/16 00:23:49;;;;;;;9.75;6.65;;;22.60;50.80;;;;;;5012423;28;47147;-49
2020/12/16 00:26:15;;;;;;;8.93;6.85;;;22.60;50.80;;;;;;5012174;28;45486;-49
2020/12/16 00:28:41;;;;;;;9.75;6.13;;;22.60;50.80;;;;;;5012617;28;45439;-49
2020/12/16 00:31:07;;;;;;;9.82;5.88;;;22.60;50.80;;;;;;5013156;28;45370;-49
2020/12/16 00:33:33;;;;;;;8.32;5.65;;;22.60;50.80;;;;;;5011978;28;46248;-47
2020/12/16 00:35:59;;;;;;;8.93;6.30;;;22.60;50.80;;;;;;5012303;28;45341;-47
2020/12/16 00:38:25;;;;;;;9.25;6.18;;;22.60;50.80;;;;;;5014616;28;45443;-47
2020/12/16 00:40:50;;;;;;;8.73;6.13;;;22.60;50.80;;;;;;5032422;28;45643;-49
2020/12/16 00:43:16;;;;;;;9.25;6.35;;;22.60;50.80;;;;;;5031733;28;46314;-49
2020/12/16 00:45:41;;;;;;;8.32;6.20;;;22.60;50.80;;;;;;5031861;28;45217;-48
2020/12/16 00:48:07;;;;;;;9.50;6.38;;;22.50;50.80;;;;;;5032157;28;45297;-49
2020/12/16 00:50:33;;;;;;;8.95;5.80;;;22.50;50.80;;;;;;5032151;28;45490;-49
2020/12/16 00:52:59;;;;;;;10.20;5.65;;;22.50;50.80;;;;;;5031760;28;47407;-49
2020/12/16 00:55:25;;;;;;;10.13;6.32;;;22.50;50.80;;;;;;5048508;28;45419;-49
2020/12/16 00:57:51;;;;;;;7.72;6.25;;;22.50;50.80;;;;;;5031791;28;45470;-49
2020/12/16 01:00:17;;;;;;;11.00;5.97;;;22.50;50.80;;;;;;5032210;28;45397;-49
2020/12/16 01:02:43;;;;;;;10.23;6.85;;;22.50;50.80;;;;;;5031733;28;46261;-49
2020/12/16 01:05:09;;;;;;;8.82;5.88;;;22.50;50.80;;;;;;5031370;28;45410;-49
2020/12/16 01:07:38;;;;;;;8.10;5.80;;;22.50;50.90;;;;;;5031687;28;45330;-49
2020/12/16 01:10:03;;;;;;;9.02;6.68;;;22.50;50.80;;;;;;5048877;28;45440;-49
2020/12/16 01:12:29;;;;;;;8.55;6.03;;;22.40;50.80;;;;;;5031669;28;46064;-49
2020/12/16 01:14:55;;;;;;;8.07;6.03;;;22.40;50.80;;;;;;5031378;28;45291;-49
2020/12/16 01:17:20;;;;;;;8.85;5.90;;;22.40;50.80;;;;;;5031542;28;45409;-49
2020/12/16 01:19:46;;;;;;;7.55;5.47;;;22.40;50.80;;;;;;5048340;28;45583;-49
2020/12/16 01:22:11;;;;;;;10.20;6.63;;;22.40;50.80;;;;;;5048147;28;46147;-50
2020/12/16 01:24:37;;;;;;;9.07;6.10;;;22.40;50.80;;;;;;5031315;28;45379;-49
2020/12/16 01:27:03;;;;;;;7.78;5.70;;;22.40;50.80;;;;;;5031347;28;45427;-49
2020/12/16 01:29:28;;;;;;;8.07;6.13;;;22.40;50.80;;;;;;5048327;28;45319;-49
2020/12/16 01:31:54;;;;;;;10.60;6.15;;;22.40;50.80;;;;;;5031129;28;46455;-49
2020/12/16 01:34:20;;;;;;;7.13;5.50;;;22.40;50.80;;;;;;5030776;28;45368;-49
2020/12/16 01:36:48;;;;;;;8.13;5.70;;;22.40;50.80;;;;;;5031021;28;45405;-49
2020/12/16 01:39:14;;;;;;;9.30;6.35;;;22.40;50.80;;;;;;5039083;28;45628;-49
2020/12/16 01:41:48;;;;;;;8.60;6.07;;;22.30;50.80;;;;;;5011190;28;46160;-49
2020/12/16 01:44:15;;;;;;;7.65;5.82;;;22.30;50.80;;;;;;5027695;28;45320;-49
2020/12/16 01:46:52;;;;;;;7.38;5.53;;;22.30;50.80;;;;;;5027538;28;45291;-49
2020/12/16 01:49:18;;;;;;;9.13;6.35;;;22.30;50.80;;;;;;5028205;28;45341;-49
2020/12/16 01:51:44;;;;;;;8.20;6.13;;;22.30;50.70;;;;;;5011141;28;46088;-49
2020/12/16 01:54:11;;;;;;;9.23;5.25;;;22.30;50.70;;;;;;5010947;28;45371;-50
2020/12/16 01:56:39;;;;;;;7.82;5.68;;;22.30;50.70;;;;;;5027564;28;45238;-49
2020/12/16 01:59:06;;;;;;;7.53;5.70;;;22.30;50.70;;;;;;5011735;28;45605;-49
2020/12/16 02:01:31;;;;;;;8.35;6.00;;;22.30;50.70;;;;;;5027074;28;46880;-49
2020/12/16 02:03:57;;;;;;;7.50;5.78;;;22.30;50.70;;;;;;5010833;28;45301;-49
2020/12/16 02:06:23;;;;;;;8.10;5.65;;;22.30;50.70;;;;;;5010891;28;45330;-49
2020/12/16 02:08:50;;;;;;;8.00;5.78;;;22.20;50.70;;;;;;5011296;28;45553;-49
2020/12/16 02:11:15;;;;;;;7.05;5.53;;;22.30;50.70;;;;;;5026514;28;45462;-50
2020/12/16 02:13:41;;;;;;;8.30;5.32;;;22.20;50.70;;;;;;5010790;28;45451;-49
2020/12/16 02:16:07;;;;;;;8.77;5.80;;;22.20;50.60;;;;;;5010752;28;45179;-51
2020/12/16 02:18:32;;;;;;;8.63;5.78;;;22.20;50.60;;;;;;5011042;28;45299;-48
2020/12/16 02:20:58;;;;;;;6.95;5.18;;;22.20;50.70;;;;;;5010506;28;47122;-47
2020/12/16 02:23:23;;;;;;;7.20;5.30;;;22.20;50.60;;;;;;5010629;28;45285;-47
2020/12/16 02:25:49;;;;;;;7.13;4.72;;;22.20;50.60;;;;;;5010399;28;45226;-47
2020/12/16 02:28:15;;;;;;;6.55;4.88;;;22.20;50.70;;;;;;5027604;28;45216;-47
2020/12/16 02:30:41;;;;;;;7.75;5.75;;;22.20;50.60;;;;;;5009616;28;46072;-49
2020/12/16 02:33:06;;;;;;;7.15;5.13;;;22.20;50.60;;;;;;5009677;28;45538;-48
2020/12/16 02:35:32;;;;;;;7.95;5.55;;;22.20;50.60;;;;;;5026848;28;45366;-48
2020/12/16 02:37:58;;;;;;;7.28;5.43;;;22.10;50.60;;;;;;5010891;28;45437;-48
2020/12/16 02:40:23;;;;;;;7.53;5.25;;;22.20;50.60;;;;;;5028843;28;45486;-48
2020/12/16 02:42:49;;;;;;;7.05;5.22;;;22.10;50.50;;;;;;5029911;28;45387;-48
2020/12/16 02:45:15;;;;;;;5.88;4.60;;;22.20;50.60;;;;;;5030209;28;45488;-48
2020/12/16 02:47:40;;;;;;;8.27;5.47;;;22.10;50.50;;;;;;5030471;28;45542;-48
2020/12/16 02:50:06;;;;;;;6.65;5.05;;;22.10;50.50;;;;;;5030057;28;45328;-48
2020/12/16 02:52:31;;;;;;;6.85;5.25;;;22.10;50.50;;;;;;5030009;28;45237;-48
2020/12/16 02:54:57;;;;;;;7.63;5.28;;;22.10;50.50;;;;;;5046751;28;45288;-47
2020/12/16 02:57:23;;;;;;;7.95;5.45;;;22.10;50.50;;;;;;5030354;28;45205;-50
2020/12/16 02:59:59;;;;;;;7.68;4.93;;;22.10;50.50;;;;;;5029835;28;45349;-47
2020/12/16 03:02:24;;;;;;;6.18;4.47;;;22.10;50.50;;;;;;5030043;28;45392;-47
2020/12/16 03:04:50;;;;;;;7.18;4.88;;;22.10;50.50;;;;;;5029728;28;45205;-49
2020/12/16 03:07:16;;;;;;;8.25;5.85;;;22.10;50.40;;;;;;5030244;28;45539;-47
2020/12/16 03:09:41;;;;;;;8.10;5.45;;;22.10;50.30;;;;;;5029776;28;45363;-49
2020/12/16 03:12:07;;;;;;;7.20;5.22;;;22.20;50.30;;;;;;5046432;28;45380;-49
2020/12/16 03:14:33;;;;;;;6.18;4.70;;;22.30;50.30;;;;;;5029918;28;45459;-47
2020/12/16 03:16:58;;;;;;;7.07;4.53;;;22.30;50.10;;;;;;5030274;28;45344;-47
2020/12/16 03:19:24;;;;;;;6.47;5.15;;;22.40;50.10;;;;;;5029581;28;46039;-49
2020/12/16 03:21:49;;;;;;;5.72;4.25;;;22.40;49.90;;;;;;5046378;28;45443;-47
2020/12/16 03:24:15;;;;;;;6.43;4.15;;;22.40;49.80;;;;;;5029694;28;45393;-48
2020/12/16 03:26:41;;;;;;;6.35;4.93;;;22.50;49.70;;;;;;5030134;28;45387;-48
2020/12/16 03:29:07;;;;;;;6.65;4.47;;;22.50;49.60;;;;;;5029460;28;46226;-51
2020/12/16 03:31:33;;;;;;;5.80;4.60;;;22.60;49.60;;;;;;5029762;28;45281;-47
2020/12/16 03:33:58;;;;;;;6.72;4.78;;;22.50;49.50;;;;;;5029613;28;45206;-48
2020/12/16 03:36:24;;;;;;;6.35;5.05;;;22.60;49.50;;;;;;5030026;28;45578;-49
2020/12/16 03:38:49;;;;;;;6.07;4.45;;;22.60;49.40;;;;;;5039994;28;47178;-49
2020/12/16 03:41:16;;;;;;;7.35;4.65;;;22.60;49.30;;;;;;5010226;28;45206;-49
2020/12/16 03:43:45;;;;;;;7.82;5.22;;;22.60;49.30;;;;;;5013156;28;45352;-49
2020/12/16 03:46:11;;;;;;;7.05;4.72;;;22.60;49.20;;;;;;5013508;28;45310;-49
2020/12/16 03:48:37;;;;;;;7.15;4.82;;;22.60;49.20;;;;;;5029345;28;46853;-47
2020/12/16 03:51:04;;;;;;;6.50;4.70;;;22.70;49.20;;;;;;5012999;28;45262;-48
2020/12/16 03:53:32;;;;;;;6.72;4.53;;;22.70;49.10;;;;;;5013058;28;45303;-47
2020/12/16 03:55:58;;;;;;;7.10;4.70;;;22.70;49.10;;;;;;5013391;28;45601;-48
2020/12/16 03:58:23;;;;;;;6.35;4.28;;;22.70;49.20;;;;;;5013192;28;45605;-49
2020/12/16 04:00:49;;;;;;;6.63;4.45;;;22.80;49.20;;;;;;5012578;28;45320;-47
2020/12/16 04:03:14;;;;;;;5.80;4.70;;;22.80;49.10;;;;;;5012873;28;45341;-49
2020/12/16 04:05:40;;;;;;;6.45;4.10;;;22.80;49.00;;;;;;5013300;28;45419;-49
2020/12/16 04:08:06;;;;;;;6.10;4.32;;;22.80;49.00;;;;;;5012497;28;45996;-48
2020/12/16 04:10:31;;;;;;;6.28;4.43;;;22.80;49.00;;;;;;5012568;28;45690;-49
2020/12/16 04:12:57;;;;;;;7.18;4.80;;;22.90;48.90;;;;;;5012717;28;45309;-48
2020/12/16 04:15:22;;;;;;;5.45;4.25;;;22.90;48.80;;;;;;5013021;28;45318;-48
2020/12/16 04:17:48;;;;;;;6.20;4.70;;;22.90;48.80;;;;;;5012352;28;46066;-49
2020/12/16 04:20:14;;;;;;;6.28;4.28;;;22.90;48.90;;;;;;5012487;28;45260;-49
2020/12/16 04:22:39;;;;;;;6.70;5.10;;;22.90;48.90;;;;;;5012545;28;45312;-48
2020/12/16 04:25:05;;;;;;;5.50;4.20;;;23.00;48.80;;;;;;5012868;28;45652;-48
2020/12/16 04:27:30;;;;;;;7.18;4.30;;;23.00;48.80;;;;;;5012197;28;45268;-48
2020/12/16 04:29:56;;;;;;;6.47;4.65;;;22.90;48.80;;;;;;5012413;28;45217;-48
2020/12/16 04:32:22;;;;;;;6.05;4.13;;;23.00;48.90;;;;;;5012341;28;45594;-48
2020/12/16 04:34:47;;;;;;;6.75;4.10;;;23.00;48.80;;;;;;5012618;28;45399;-48
2020/12/16 04:37:13;;;;;;;6.53;4.32;;;23.00;48.70;;;;;;5011677;28;46103;-48
2020/12/16 04:39:38;;;;;;;10.35;4.40;;;23.00;48.70;;;;;;5041364;28;45411;-48
2020/12/16 04:42:04;;;;;;;5.35;3.80;;;23.10;48.70;;;;;;5032178;28;45343;-48
2020/12/16 04:44:30;;;;;;;6.20;4.05;;;23.10;48.70;;;;;;5049107;28;45586;-48
2020/12/16 04:46:55;;;;;;;6.30;4.18;;;23.10;48.60;;;;;;5031479;28;46293;-48
2020/12/16 04:49:21;;;;;;;5.50;3.90;;;23.10;48.60;;;;;;5031751;28;45358;-48
2020/12/16 04:51:47;;;;;;;7.95;4.38;;;23.10;48.60;;;;;;5031866;28;45340;-50
2020/12/16 04:54:12;;;;;;;6.97;4.53;;;23.10;48.50;;;;;;5031570;28;45281;-48
2020/12/16 04:56:38;;;;;;;5.72;4.00;;;23.20;48.50;;;;;;5031708;28;46013;-48
2020/12/16 04:59:04;;;;;;;5.63;4.05;;;23.10;48.50;;;;;;5047857;28;45368;-48
2020/12/16 05:01:30;;;;;;;6.43;4.30;;;23.20;48.50;;;;;;5031680;28;45298;-48
2020/12/16 05:03:56;;;;;;;7.53;4.38;;;23.20;48.40;;;;;;5048349;28;45492;-48
2020/12/16 05:06:38;;;;;;;6.88;4.55;;;23.20;48.40;;;;;;5048007;28;46957;-50
2020/12/16 05:09:08;;;;;;;6.68;4.07;;;23.20;48.30;;;;;;5048244;28;45270;-49
2020/12/16 05:11:45;;;;;;;4.63;3.55;;;23.20;48.40;;;;;;5049691;28;45311;-48
2020/12/16 05:14:15;;;;;;;6.45;4.22;;;23.20;48.30;;;;;;5049667;28;45371;-49
2020/12/16 05:17:10;;;;;;;6.07;3.92;;;23.20;48.30;;;;;;5048217;28;45588;-48
2020/12/16 05:19:39;;;;;;;6.32;3.97;;;23.20;48.20;;;;;;5043317;28;45439;-48
2020/12/16 05:22:17;;;;;;;5.88;3.47;;;23.20;48.30;;;;;;5045154;28;45495;-48
2020/12/16 05:24:44;;;;;;;5.15;3.50;;;23.30;48.30;;;;;;5039266;28;45285;-48
2020/12/16 05:27:15;;;;;;;6.00;3.50;;;23.30;48.30;;;;;;5047874;28;45330;-49
2020/12/16 05:29:40;;;;;;;6.00;4.10;;;23.30;48.20;;;;;;5031247;28;45415;-49
2020/12/16 05:32:20;;;;;;;5.50;3.72;;;23.30;48.20;;;;;;5048260;28;45323;-49
2020/12/16 05:34:46;;;;;;;5.70;3.92;;;23.40;48.10;;;;;;5026036;28;45268;-49
2020/12/16 05:37:24;;;;;;;7.60;4.75;;;23.40;48.20;;;;;;5030931;28;46037;-49
2020/12/16 05:40:14;;;;;;;6.57;4.60;;;23.40;48.10;;;;;;5048955;28;45350;-49
2020/12/16 05:42:40;;;;;;;5.43;3.97;;;23.40;48.00;;;;;;5041459;28;45854;-49
2020/12/16 05:45:14;;;;;;;6.13;4.38;;;23.40;48.00;;;;;;5038848;28;45526;-49
2020/12/16 05:47:41;;;;;;;6.18;3.90;;;23.40;48.00;;;;;;5033566;28;46970;-49
2020/12/16 05:50:16;;;;;;;7.53;4.53;;;23.40;48.00;;;;;;5031177;28;45346;-49
2020/12/16 05:52:41;;;;;;;8.90;5.90;;;23.50;48.00;;;;;;5047696;28;45379;-49
2020/12/16 05:55:07;;;;;;;8.30;5.00;;;23.40;48.60;;;;;;5048062;28;45428;-49
2020/12/16 05:57:33;;;;;;;9.15;5.80;;;23.40;47.90;;;;;;5030617;28;46177;-49
2020/12/16 06:00:12;;;;;;;9.52;5.68;;;23.40;47.90;;;;;;5030797;28;45445;-49
2020/12/16 06:02:44;;;;;;;11.63;6.35;;;23.40;47.80;;;;;;5047369;28;45249;-49
2020/12/16 06:05:14;;;;;;;10.50;6.82;;;23.40;47.70;;;;;;5030518;28;45371;-48
2020/12/16 06:07:45;;;;;;;11.13;6.15;;;23.40;47.50;;;;;;5029970;28;45225;-48
2020/12/16 06:10:10;;;;;;;12.45;6.90;;;23.50;47.50;;;;;;5047096;28;45564;-48
2020/12/16 06:12:38;;;;;;;9.55;6.07;;;23.50;47.30;;;;;;5030428;28;45380;-52
2020/12/16 06:15:09;;;;;;;10.15;6.13;;;23.50;47.10;;;;;;5029915;28;45399;-52
2020/12/16 06:17:42;;;;;;;9.20;6.28;;;23.50;46.90;;;;;;5044299;28;45551;-54
2020/12/16 06:20:10;;;;;;;9.25;6.15;;;23.50;47.30;;;;;;5045049;28;45367;-54
2020/12/16 06:22:36;;;;;;;10.85;6.32;;;23.70;46.80;;;;;;5045145;28;45337;-55
2020/12/16 06:25:04;;;;;;;11.55;6.47;;;23.70;46.50;;;;;;5018654;28;45317;-57
2020/12/16 06:27:35;;;;;;;9.43;6.32;;;23.80;46.30;;;;;;5037340;28;47101;-52
2020/12/16 06:30:01;;;;;;;7.80;5.85;;;23.90;46.00;;;;;;5037495;28;45500;-53
2020/12/16 06:32:37;;;;;;;7.47;5.63;;;23.90;46.00;;;;;;5019775;28;45415;-51
2020/12/16 06:35:03;;;;;;;10.07;6.53;;;24.00;46.00;;;;;;5030667;28;45609;-52
2020/12/16 06:37:29;;;;;;;13.98;6.13;;;24.00;45.90;;;;;;5020396;28;45329;-54
2020/12/16 06:39:54;;;;;;;13.23;6.80;;;24.10;45.80;;;;;;5020691;28;45367;-52
2020/12/16 06:42:33;;;;;;;10.40;6.28;;;24.10;45.60;;;;;;5026480;28;45301;-53
2020/12/16 06:45:14;;;;;;;12.57;7.38;;;24.20;44.90;;;;;;5045051;28;45493;-55
2020/12/16 06:47:39;;;;;;;15.02;8.25;;;24.10;42.00;;;;;;5026124;28;45447;-52
2020/12/16 06:50:20;;;;;;;11.70;7.63;;;23.90;42.60;;;;;;5033338;28;45418;-53
2020/12/16 06:52:46;;;;;;;11.85;9.45;;;23.90;41.30;;;;;;5059686;28;45433;-55
2020/12/16 06:55:12;;;;;;;12.93;9.23;;;23.70;41.40;;;;;;5043809;28;45491;-55
2020/12/16 06:57:50;;;;;;;11.25;7.30;;;23.70;41.90;;;;;;5028650;28;46910;-58
2020/12/16 07:00:17;;;;;;;11.48;7.85;;;23.80;43.00;;;;;;5060865;28;45709;-57
2020/12/16 07:02:43;;;;;;;12.25;7.65;;;24.00;43.50;;;;;;5048980;28;45825;-55
2020/12/16 07:05:36;;;;;;;10.85;6.63;;;24.10;43.80;;;;;;5028455;28;46132;-58
2020/12/16 07:08:01;;;;;;;11.13;5.80;;;24.20;43.90;;;;;;5044530;28;46278;-54
2020/12/16 07:10:33;;;;;;;7.85;5.85;;;24.20;44.20;;;;;;5028514;28;45395;-57
2020/12/16 07:13:09;;;;;;;10.15;6.25;;;24.30;44.60;;;;;;5055797;28;45390;-52
2020/12/16 07:15:54;;;;;;;7.63;5.53;;;24.40;44.50;;;;;;5057532;28;45311;-52
2020/12/16 07:18:27;;;;;;;9.43;5.60;;;24.50;44.50;;;;;;5051446;28;47004;-51
2020/12/16 07:21:17;;;;;;;11.57;5.40;;;24.50;44.60;;;;;;5059866;28;45447;-51
2020/12/16 07:23:52;;;;;;;9.18;5.90;;;24.50;44.50;;;;;;5041321;28;45388;-51
2020/12/16 07:26:46;;;;;;;;;;;24.60;44.60;;;;;;5045239;28;45630;-53
2020/12/16 07:29:34;;;;;;;7.50;5.32;;;24.60;44.70;;;;;;5047006;28;46328;-51
2020/12/16 07:32:06;;;;;;;7.97;5.45;;;24.70;44.70;;;;;;5058042;28;45447;-55
2020/12/16 07:34:43;;;;;;;8.50;5.50;;;24.70;44.80;;;;;;5066359;28;45255;-52
2020/12/16 07:37:09;;;;;;;7.57;5.15;;;24.70;44.80;;;;;;5054613;28;45465;-52
2020/12/16 07:39:34;;;;;;;7.82;5.05;;;24.80;45.00;;;;;;5055299;28;46870;-52
2020/12/16 07:42:01;;;;;;;6.78;4.85;;;24.80;45.50;;;;;;5062961;28;45367;-53
2020/12/16 07:44:26;;;;;;;7.93;5.03;;;24.80;45.00;;;;;;5032519;28;46438;-54
2020/12/16 07:46:52;;;;;;;7.15;4.60;;;24.90;45.00;;;;;;5051421;28;45283;-54
2020/12/16 07:49:20;;;;;;;8.80;4.55;;;24.90;45.00;;;;;;5046721;28;47110;-53
2020/12/16 07:51:46;;;;;;;7.07;5.03;;;24.90;45.00;;;;;;5036239;28;45427;-55
2020/12/16 07:54:11;;;;;;;7.38;4.47;;;24.90;45.00;;;;;;5041366;28;45430;-57
2020/12/16 07:56:37;;;;;;;5.80;3.95;;;24.90;45.00;;;;;;5028282;28;45458;-61
2020/12/16 07:59:12;;;;;;;9.30;4.43;;;25.00;45.10;;;;;;5028890;28;46396;-50
2020/12/16 08:01:38;;;;;;;8.88;5.07;;;25.00;45.10;;;;;;5044017;28;45472;-49
2020/12/16 08:04:03;;;;;;;8.07;5.82;;;25.00;45.10;;;;;;5045154;28;45450;-55
2020/12/16 08:06:29;;;;;;;9.23;6.50;;;25.00;44.80;;;;;;5027593;28;45296;-57
2020/12/16 08:08:57;;;;;;;11.23;6.78;;;25.00;44.50;;;;;;5045297;28;45896;-56
2020/12/16 08:11:27;;;;;;;11.02;7.22;;;25.00;44.60;;;;;;5035754;28;46327;-56
2020/12/16 08:14:02;;;;;;;13.23;7.85;;;25.00;44.20;;;;;;5031320;28;45567;-57
2020/12/16 08:16:28;;;;;;;10.07;7.35;;;24.90;43.50;;;;;;5067204;28;45343;-53
2020/12/16 08:18:53;;;;;;;12.63;7.65;;;24.90;43.80;;;;;;5067586;28;46004;-52
2020/12/16 08:21:22;;;;;;;12.07;7.63;;;25.00;43.60;;;;;;5048371;28;45271;-52
2020/12/16 08:23:52;;;;;;;11.38;8.02;;;24.90;43.40;;;;;;5041501;28;45441;-53
2020/12/16 08:26:19;;;;;;;12.32;8.50;;;24.90;43.10;;;;;;5029924;28;45414;-56
2020/12/16 08:28:44;;;;;;;12.30;8.07;;;24.90;43.00;;;;;;5065228;28;47247;-53
2020/12/16 08:31:10;;;;;;;11.13;7.70;;;24.90;42.70;;;;;;5059538;28;45778;-58
2020/12/16 08:33:36;;;;;;;10.88;7.78;;;24.90;42.90;;;;;;5037720;28;45442;-51
2020/12/16 08:36:08;;;;;;;11.10;7.70;;;24.90;43.00;;;;;;5060370;28;45760;-56
2020/12/16 08:38:43;;;;;;;10.32;7.30;;;24.90;43.00;;;;;;5047154;28;46458;-53
2020/12/16 08:41:10;;;;;;;10.43;6.13;;;24.90;43.10;;;;;;5064261;28;45576;-51
2020/12/16 08:43:37;;;;;;;10.32;7.30;;;24.90;43.20;;;;;;5061284;28;45359;-50
2020/12/16 08:46:19;;;;;;;8.93;6.57;;;24.90;43.20;;;;;;5049522;28;45229;-50
2020/12/16 08:48:59;;;;;;;11.27;7.78;;;24.90;42.80;;;;;;5068753;28;46499;-50
2020/12/16 08:51:44;;;;;;;9.93;7.10;;;24.80;42.70;;;;;;5067481;28;45553;-49
2020/12/16 08:54:10;;;;;;;11.35;7.70;;;24.80;43.20;;;;;;5056277;28;45690;-58
2020/12/16 08:56:37;;;;;;;9.75;6.38;;;24.90;43.40;;;;;;5062146;28;45321;-52
2020/12/16 08:59:11;;;;;;;8.95;6.80;;;24.90;43.50;;;;;;5065992;28;46234;-57
2020/12/16 09:01:38;;;;;;;9.07;6.18;;;24.90;43.50;;;;;;5066504;28;45315;-52
2020/12/16 09:04:04;;;;;;;10.40;7.07;;;25.00;43.70;;;;;;5055746;28;45471;-55
2020/12/16 09:06:30;;;;;;;9.63;6.45;;;25.00;43.80;;;;;;5061495;28;45357;-54
2020/12/16 09:08:55;;;;;;;8.27;6.25;;;25.00;43.90;;;;;;5040464;28;46495;-53
2020/12/16 09:11:21;;;;;;;9.43;5.75;;;25.00;43.80;;;;;;5050638;28;45514;-51
2020/12/16 09:13:48;;;;;;;9.20;5.60;;;25.10;43.90;;;;;;5043825;28;45661;-51
2020/12/16 09:16:23;;;;;;;9.15;6.45;;;25.10;43.80;;;;;;5030444;28;45410;-51
2020/12/16 09:18:49;;;;;;;9.80;7.20;;;25.10;43.20;;;;;;5029847;28;45364;-51
2020/12/16 09:21:29;;;;;;;9.52;7.07;;;25.00;43.60;;;;;;5032490;28;45335;-54
2020/12/16 09:23:54;;;;;;;8.82;6.63;;;25.00;43.40;;;;;;5050381;28;45541;-56
2020/12/16 09:26:20;;;;;;;11.93;8.73;;;25.00;43.30;;;;;;5036814;28;45815;-55
2020/12/16 09:28:45;;;;;;;15.27;8.27;;;25.00;42.40;;;;;;5051349;28;46082;-62
2020/12/16 09:31:16;;;;;;;12.05;9.32;;;24.80;42.60;;;;;;5030731;28;45553;-61
2020/12/16 09:33:42;;;;;;;12.02;9.63;;;24.90;42.90;;;;;;5040988;28;45671;-55
2020/12/16 09:36:08;;;;;;;16.42;9.40;;;24.90;42.40;;;;;;5029930;28;45376;-53
2020/12/16 09:38:34;;;;;;;12.40;8.48;;;24.80;42.00;;;;;;5051234;28;46218;-52
2020/12/16 09:41:00;;;;;;;11.35;8.63;;;24.60;41.60;;;;;;5054984;28;45486;-53
2020/12/16 09:43:41;;;;;;;12.40;8.82;;;24.50;42.30;;;;;;5045440;28;45565;-51
2020/12/16 09:46:17;;;;;;;11.70;8.40;;;24.70;42.00;;;;;;5048008;28;45544;-50
2020/12/16 09:48:47;;;;;;;11.88;9.25;;;24.70;42.40;;;;;;5042414;28;46293;-52
2020/12/16 09:51:17;;;;;;;14.60;8.75;;;24.70;42.40;;;;;;5041439;28;45363;-53
2020/12/16 09:53:43;;;;;;;12.30;7.38;;;24.90;43.00;;;;;;5043481;28;45460;-58
2020/12/16 09:56:24;;;;;;;13.90;7.93;;;25.00;43.00;;;;;;5028363;28;45414;-60
2020/12/16 09:58:49;;;;;;;9.68;7.70;;;25.10;42.90;;;;;;5057772;28;45478;-57
2020/12/16 10:01:15;;;;;;;11.25;7.57;;;25.20;42.90;;;;;;5060630;28;45446;-53
2020/12/16 10:03:41;;;;;;;9.10;7.03;;;25.20;43.00;;;;;;5033659;28;45459;-62
2020/12/16 10:06:13;;;;;;;10.25;7.70;;;25.30;43.10;;;;;;5052540;28;45699;-59
2020/12/16 10:08:42;;;;;;;11.25;7.65;;;25.40;43.10;;;;;;5047192;28;47134;-58
2020/12/16 10:11:11;;;;;;;12.88;7.28;;;25.50;43.20;;;;;;5048218;28;45752;-58
2020/12/16 10:13:38;;;;;;;9.95;8.20;;;25.50;43.20;;;;;;5042400;28;45515;-58
2020/12/16 10:16:03;;;;;;;9.63;7.28;;;25.50;43.20;;;;;;5036957;28;45666;-58
2020/12/16 10:18:29;;;;;;;11.32;7.35;;;25.50;43.40;;;;;;5024479;28;47184;-58
2020/12/16 10:20:55;;;;;;;9.80;7.20;;;25.60;43.50;;;;;;5045041;28;45475;-57
2020/12/16 10:23:20;;;;;;;9.25;6.93;;;25.70;43.70;;;;;;5032421;28;45694;-56
2020/12/16 10:25:46;;;;;;;8.57;6.10;;;25.70;43.60;;;;;;5027655;28;45542;-58
2020/12/16 10:28:11;;;;;;;10.13;6.88;;;25.70;43.60;;;;;;5043726;28;45408;-65
2020/12/16 10:30:38;;;;;;;12.65;6.13;;;25.70;43.50;;;;;;5031596;28;45473;-55
2020/12/16 10:33:03;;;;;;;10.13;6.90;;;25.70;43.50;;;;;;5054392;28;45738;-57
2020/12/16 10:35:29;;;;;;;13.07;7.75;;;25.70;43.40;;;;;;5029591;28;45615;-57
2020/12/16 10:37:55;;;;;;;16.80;9.45;;;25.70;42.80;;;;;;5061264;28;45379;-57
2020/12/16 10:40:21;;;;;;;20.73;10.98;;;25.50;42.10;;;;;;5045340;28;45436;-57
2020/12/16 10:42:46;;;;;;;18.67;10.77;;;25.40;40.60;;;;;;5028867;28;45441;-57
2020/12/16 10:45:12;;;;;;;21.90;11.35;;;25.20;39.50;;;;;;5028740;28;45367;-57
2020/12/16 10:47:38;;;;;;;17.80;11.88;;;25.00;38.50;;;;;;5032913;28;46041;-58
2020/12/16 10:50:03;;;;;;;17.17;11.50;;;24.90;38.60;;;;;;5028352;28;45375;-57
2020/12/16 10:52:29;;;;;;;18.67;11.07;;;24.80;38.30;;;;;;5029156;28;45700;-57
2020/12/16 10:54:55;;;;;;;18.88;10.98;;;24.70;37.70;;;;;;5034534;28;45381;-57
2020/12/16 10:57:20;;;;;;;18.38;11.07;;;24.70;37.80;;;;;;5042536;28;45612;-52
2020/12/16 10:59:47;;;;;;;19.52;12.43;;;24.50;38.80;;;;;;5028086;28;45372;-56
2020/12/16 11:02:13;;;;;;;17.52;12.15;;;24.50;38.20;;;;;;5035668;28;45515;-56
2020/12/16 11:04:39;;;;;;;17.55;12.30;;;24.40;38.80;;;;;;5040511;28;45614;-55
2020/12/16 11:07:04;;;;;;;16.45;12.10;;;24.40;39.30;;;;;;5027713;28;46024;-61
2020/12/16 11:09:30;;;;;;;16.17;11.20;;;24.30;39.10;;;;;;5029190;28;45538;-53
2020/12/16 11:11:56;;;;;;;13.55;10.50;;;24.50;39.60;;;;;;5036013;28;45538;-52
2020/12/16 11:14:22;;;;;;;15.95;10.77;;;24.60;40.00;;;;;;5038547;28;45454;-53
2020/12/16 11:16:48;;;;;;;17.05;9.73;;;24.80;40.20;;;;;;5034308;28;46195;-52
2020/12/16 11:19:15;;;;;;;13.75;10.10;;;24.80;40.20;;;;;;5036567;28;45463;-58
2020/12/16 11:21:42;;;;;;;14.73;10.10;;;24.90;40.40;;;;;;5038172;28;45422;-54
2020/12/16 11:24:08;;;;;;;13.38;9.25;;;25.00;40.60;;;;;;5046771;28;45565;-54
2020/12/16 11:26:41;;;;;;;16.27;9.38;;;25.00;40.80;;;;;;5055928;28;45673;-53
2020/12/16 11:29:07;;;;;;;16.23;10.32;;;25.10;40.80;;;;;;5047513;28;46253;-56
2020/12/16 11:31:40;;;;;;;13.85;9.45;;;25.00;41.20;;;;;;5027853;28;45316;-53
2020/12/16 11:34:07;;;;;;;26.58;10.07;;;25.10;41.70;;;;;;5061947;28;45329;-52
2020/12/16 11:36:34;;;;;;;20.00;9.18;;;25.20;41.70;;;;;;5046334;28;46558;-53
2020/12/16 11:38:59;;;;;;;12.88;9.48;;;25.20;41.70;;;;;;5044257;28;45471;-54
2020/12/16 11:41:25;;;;;;;13.93;8.50;;;25.30;41.80;;;;;;5057890;28;45537;-56
2020/12/16 11:43:50;;;;;;;12.13;8.30;;;25.40;41.80;;;;;;5065277;28;45522;-57
2020/12/16 11:46:16;;;;;;;14.20;9.68;;;25.40;41.80;;;;;;5062936;28;45438;-54
2020/12/16 11:48:42;;;;;;;11.10;8.32;;;25.50;41.90;;;;;;5033972;28;45488;-54
2020/12/16 11:51:07;;;;;;;11.85;8.45;;;25.50;42.00;;;;;;5039100;28;45333;-57
2020/12/16 11:53:33;;;;;;;18.08;9.00;;;25.50;42.00;;;;;;5044784;28;45331;-59
2020/12/16 11:55:59;;;;;;;12.93;8.85;;;25.60;42.10;;;;;;5027713;28;46843;-62
2020/12/16 11:58:28;;;;;;;12.93;8.18;;;25.60;42.10;;;;;;5064528;28;45369;-61
2020/12/16 12:00:53;;;;;;;13.10;8.25;;;25.70;42.10;;;;;;5048630;28;45330;-57
2020/12/16 12:03:19;;;;;;;10.75;7.47;;;25.70;42.20;;;;;;5055638;28;45417;-59
2020/12/16 12:05:44;;;;;;;10.45;7.72;;;25.70;42.20;;;;;;5030740;28;46164;-54
2020/12/16 12:08:10;;;;;;;19.33;9.32;;;25.70;42.40;;;;;;5039310;28;45335;-57
2020/12/16 12:10:36;;;;;;;13.35;8.35;;;25.50;42.80;;;;;;5047836;28;45577;-56
2020/12/16 12:13:01;;;;;;;14.73;9.02;;;25.40;43.00;;;;;;5029782;28;45486;-56
2020/12/16 12:15:27;;;;;;;14.30;7.90;;;25.30;43.20;;;;;;5057474;28;46542;-54
2020/12/16 12:17:52;;;;;;;11.57;8.65;;;25.20;43.30;;;;;;5052776;28;45530;-58
2020/12/16 12:20:18;;;;;;;11.98;8.10;;;25.20;43.50;;;;;;5039735;28;45469;-55
2020/12/16 12:22:44;;;;;;;12.27;8.73;;;25.30;43.40;;;;;;5048980;28;45628;-56
2020/12/16 12:25:09;;;;;;;12.23;8.73;;;25.30;43.30;;;;;;5055606;28;45458;-57
2020/12/16 12:27:35;;;;;;;12.40;8.52;;;25.30;43.20;;;;;;5057798;28;45417;-55
2020/12/16 12:30:00;;;;;;;11.27;8.00;;;25.40;43.20;;;;;;5046718;28;45236;-57
2020/12/16 12:32:26;;;;;;;13.52;8.23;;;25.40;43.20;;;;;;5029180;28;45403;-55
2020/12/16 12:34:52;;;;;;;12.80;8.43;;;25.40;43.20;;;;;;5049016;28;45989;-56
2020/12/16 12:37:17;;;;;;;10.73;7.82;;;25.40;43.20;;;;;;5047725;28;45404;-54
2020/12/16 12:39:43;;;;;;;11.23;7.38;;;25.40;43.20;;;;;;5055441;28;45524;-54
2020/12/16 12:42:08;;;;;;;10.90;7.35;;;25.30;43.20;;;;;;5055991;28;45616;-56
2020/12/16 12:44:34;;;;;;;10.50;7.35;;;25.30;43.20;;;;;;5030131;28;47133;-56
2020/12/16 12:47:00;;;;;;;11.27;7.57;;;25.30;43.20;;;;;;5030356;28;45508;-56